KQEY

Geumsan Rws

Geumsan Rws, South Korea
METAR KQEY 181310Z AUTO 19001KT 9999 CLR 00/M04 A2986 RMK A02 TSNO
Observed Flight Rules
Dec-18 @ 13:10 UTC (19 minutes ago) Visual Flight Rules
Wind Visibility Clouds
190° at 1 knots 10,000+ meters
  • Clear skies
Temperatures Readings
Current 0°C / 32°F
Dewpoint -4°C / 25°F
Humidity 75%
Altimeter 29.86" Hg
Pressure 1011 hPa
METAR KQEY 181310Z AUTO 19001KT 9999 CLR 00/M04 A2986 RMK A02 TSNO
Observed Flight Rules
Dec-18 @ 13:10 UTC
(19 minutes ago)
VFR
Wind Visibility
190° at 1 knots 10,000+ meters
Clouds
  • Clear skies
Temperature Dewpoint
0°C / 32°F -4°C / 25°F
Humidity Altimeter Pressure
75% 29.86" Hg 1011 hPa